sensor_id;sensor_type;location;lat;lon;timestamp;P1;durP1;ratioP1;P2;durP2;ratioP2
23266;SDS011;11802;53.160;8.214;2024-01-11T00:00:38;66.27;;;27.50;;
23266;SDS011;11802;53.160;8.214;2024-01-11T00:03:03;69.33;;;27.63;;
23266;SDS011;11802;53.160;8.214;2024-01-11T00:05:29;73.60;;;27.77;;
23266;SDS011;11802;53.160;8.214;2024-01-11T00:07:54;67.90;;;27.87;;
23266;SDS011;11802;53.160;8.214;2024-01-11T00:10:20;74.30;;;28.03;;
23266;SDS011;11802;53.160;8.214;2024-01-11T00:12:46;72.07;;;27.40;;
23266;SDS011;11802;53.160;8.214;2024-01-11T00:15:12;77.37;;;27.47;;
23266;SDS011;11802;53.160;8.214;2024-01-11T00:17:38;68.20;;;27.07;;
23266;SDS011;11802;53.160;8.214;2024-01-11T00:20:03;76.03;;;27.60;;
23266;SDS011;11802;53.160;8.214;2024-01-11T00:22:30;67.67;;;26.97;;
23266;SDS011;11802;53.160;8.214;2024-01-11T00:24:56;75.33;;;27.80;;
23266;SDS011;11802;53.160;8.214;2024-01-11T00:27:21;71.00;;;28.07;;
23266;SDS011;11802;53.160;8.214;2024-01-11T00:29:47;79.73;;;31.07;;
23266;SDS011;11802;53.160;8.214;2024-01-11T00:32:12;67.73;;;25.90;;
23266;SDS011;11802;53.160;8.214;2024-01-11T00:34:38;73.13;;;29.83;;
23266;SDS011;11802;53.160;8.214;2024-01-11T00:37:03;69.80;;;25.83;;
23266;SDS011;11802;53.160;8.214;2024-01-11T00:39:29;68.70;;;27.87;;
23266;SDS011;11802;53.160;8.214;2024-01-11T00:41:55;67.77;;;25.73;;
23266;SDS011;11802;53.160;8.214;2024-01-11T00:44:20;74.97;;;28.07;;
23266;SDS011;11802;53.160;8.214;2024-01-11T00:46:46;62.40;;;27.80;;
23266;SDS011;11802;53.160;8.214;2024-01-11T00:49:11;77.23;;;29.27;;
23266;SDS011;11802;53.160;8.214;2024-01-11T00:51:37;74.60;;;29.27;;
23266;SDS011;11802;53.160;8.214;2024-01-11T00:54:03;78.43;;;29.47;;
23266;SDS011;11802;53.160;8.214;2024-01-11T00:56:28;73.03;;;29.10;;
23266;SDS011;11802;53.160;8.214;2024-01-11T00:58:54;71.03;;;28.40;;
23266;SDS011;11802;53.160;8.214;2024-01-11T01:01:19;78.13;;;29.17;;
23266;SDS011;11802;53.160;8.214;2024-01-11T01:03:45;72.13;;;26.97;;
23266;SDS011;11802;53.160;8.214;2024-01-11T01:06:10;71.90;;;27.43;;
23266;SDS011;11802;53.160;8.214;2024-01-11T01:08:36;78.00;;;28.70;;
23266;SDS011;11802;53.160;8.214;2024-01-11T01:11:01;85.97;;;30.37;;
23266;SDS011;11802;53.160;8.214;2024-01-11T01:13:27;77.10;;;27.80;;
23266;SDS011;11802;53.160;8.214;2024-01-11T01:15:53;72.80;;;28.27;;
23266;SDS011;11802;53.160;8.214;2024-01-11T01:18:18;74.83;;;29.53;;
23266;SDS011;11802;53.160;8.214;2024-01-11T01:20:44;80.80;;;30.63;;
23266;SDS011;11802;53.160;8.214;2024-01-11T01:23:09;71.03;;;29.13;;
23266;SDS011;11802;53.160;8.214;2024-01-11T01:25:35;72.13;;;29.20;;
23266;SDS011;11802;53.160;8.214;2024-01-11T01:28:01;73.67;;;27.90;;
23266;SDS011;11802;53.160;8.214;2024-01-11T01:30:27;73.07;;;28.10;;
23266;SDS011;11802;53.160;8.214;2024-01-11T01:32:53;73.20;;;29.03;;
23266;SDS011;11802;53.160;8.214;2024-01-11T01:35:18;78.13;;;31.30;;
23266;SDS011;11802;53.160;8.214;2024-01-11T01:37:44;77.37;;;29.20;;
23266;SDS011;11802;53.160;8.214;2024-01-11T01:40:13;81.43;;;28.23;;
23266;SDS011;11802;53.160;8.214;2024-01-11T01:42:42;69.97;;;27.47;;
23266;SDS011;11802;53.160;8.214;2024-01-11T01:45:09;68.30;;;27.87;;
23266;SDS011;11802;53.160;8.214;2024-01-11T01:47:34;73.13;;;28.47;;
23266;SDS011;11802;53.160;8.214;2024-01-11T01:50:01;71.10;;;28.03;;
23266;SDS011;11802;53.160;8.214;2024-01-11T01:52:27;72.93;;;28.80;;
23266;SDS011;11802;53.160;8.214;2024-01-11T01:54:54;72.80;;;29.57;;
23266;SDS011;11802;53.160;8.214;2024-01-11T01:57:22;73.50;;;29.23;;
23266;SDS011;11802;53.160;8.214;2024-01-11T01:59:49;76.17;;;29.57;;
23266;SDS011;11802;53.160;8.214;2024-01-11T02:02:17;80.50;;;29.37;;
23266;SDS011;11802;53.160;8.214;2024-01-11T02:04:44;68.60;;;29.20;;
23266;SDS011;11802;53.160;8.214;2024-01-11T02:07:10;79.23;;;30.70;;
23266;SDS011;11802;53.160;8.214;2024-01-11T02:09:36;75.30;;;29.13;;
23266;SDS011;11802;53.160;8.214;2024-01-11T02:12:02;72.97;;;28.23;;
23266;SDS011;11802;53.160;8.214;2024-01-11T02:14:28;69.07;;;27.17;;
23266;SDS011;11802;53.160;8.214;2024-01-11T02:16:54;78.27;;;29.27;;
23266;SDS011;11802;53.160;8.214;2024-01-11T02:19:20;73.67;;;28.93;;
23266;SDS011;11802;53.160;8.214;2024-01-11T02:21:46;63.27;;;26.07;;
23266;SDS011;11802;53.160;8.214;2024-01-11T02:24:14;68.97;;;28.57;;
23266;SDS011;11802;53.160;8.214;2024-01-11T02:29:29;68.90;;;27.03;;
23266;SDS011;11802;53.160;8.214;2024-01-11T02:34:45;69.40;;;27.93;;
23266;SDS011;11802;53.160;8.214;2024-01-11T02:37:11;63.90;;;25.40;;
23266;SDS011;11802;53.160;8.214;2024-01-11T02:39:37;67.87;;;28.30;;
23266;SDS011;11802;53.160;8.214;2024-01-11T02:42:04;60.87;;;25.70;;
23266;SDS011;11802;53.160;8.214;2024-01-11T02:44:29;66.70;;;28.17;;
23266;SDS011;11802;53.160;8.214;2024-01-11T02:46:55;74.43;;;27.53;;
23266;SDS011;11802;53.160;8.214;2024-01-11T02:49:20;61.90;;;27.33;;
23266;SDS011;11802;53.160;8.214;2024-01-11T02:51:46;69.90;;;26.77;;
23266;SDS011;11802;53.160;8.214;2024-01-11T02:54:12;63.83;;;26.40;;
23266;SDS011;11802;53.160;8.214;2024-01-11T02:56:37;62.60;;;25.53;;
23266;SDS011;11802;53.160;8.214;2024-01-11T02:59:03;60.67;;;25.07;;
23266;SDS011;11802;53.160;8.214;2024-01-11T03:01:28;63.87;;;25.43;;
23266;SDS011;11802;53.160;8.214;2024-01-11T03:03:54;60.97;;;25.23;;
23266;SDS011;11802;53.160;8.214;2024-01-11T03:06:21;61.57;;;25.63;;
23266;SDS011;11802;53.160;8.214;2024-01-11T03:08:50;59.67;;;25.33;;
23266;SDS011;11802;53.160;8.214;2024-01-11T03:11:16;70.10;;;29.97;;
23266;SDS011;11802;53.160;8.214;2024-01-11T03:13:42;63.67;;;26.50;;
23266;SDS011;11802;53.160;8.214;2024-01-11T03:16:07;71.47;;;27.20;;
23266;SDS011;11802;53.160;8.214;2024-01-11T03:18:33;67.53;;;27.30;;
23266;SDS011;11802;53.160;8.214;2024-01-11T03:20:58;62.20;;;26.50;;
23266;SDS011;11802;53.160;8.214;2024-01-11T03:23:24;70.67;;;27.43;;
23266;SDS011;11802;53.160;8.214;2024-01-11T03:25:49;68.27;;;27.27;;
23266;SDS011;11802;53.160;8.214;2024-01-11T03:28:15;60.17;;;25.03;;
23266;SDS011;11802;53.160;8.214;2024-01-11T03:30:41;67.80;;;25.57;;
23266;SDS011;11802;53.160;8.214;2024-01-11T03:33:08;72.73;;;27.23;;
23266;SDS011;11802;53.160;8.214;2024-01-11T03:35:33;56.90;;;24.77;;
23266;SDS011;11802;53.160;8.214;2024-01-11T03:37:59;68.60;;;25.20;;
23266;SDS011;11802;53.160;8.214;2024-01-11T03:40:24;63.37;;;26.27;;
23266;SDS011;11802;53.160;8.214;2024-01-11T03:42:51;76.10;;;27.70;;
23266;SDS011;11802;53.160;8.214;2024-01-11T03:45:19;66.83;;;26.60;;
23266;SDS011;11802;53.160;8.214;2024-01-11T03:47:45;67.67;;;29.17;;
23266;SDS011;11802;53.160;8.214;2024-01-11T03:50:11;70.17;;;29.37;;
23266;SDS011;11802;53.160;8.214;2024-01-11T03:52:36;62.27;;;24.13;;
23266;SDS011;11802;53.160;8.214;2024-01-11T03:55:02;72.17;;;27.00;;
23266;SDS011;11802;53.160;8.214;2024-01-11T03:57:28;63.47;;;25.77;;
23266;SDS011;11802;53.160;8.214;2024-01-11T03:59:53;69.33;;;26.87;;
23266;SDS011;11802;53.160;8.214;2024-01-11T04:02:19;64.17;;;24.90;;
23266;SDS011;11802;53.160;8.214;2024-01-11T04:04:45;69.30;;;27.43;;
23266;SDS011;11802;53.160;8.214;2024-01-11T04:07:10;60.37;;;25.27;;
23266;SDS011;11802;53.160;8.214;2024-01-11T04:09:39;62.97;;;24.60;;
23266;SDS011;11802;53.160;8.214;2024-01-11T04:12:05;65.37;;;27.00;;
23266;SDS011;11802;53.160;8.214;2024-01-11T04:14:31;62.90;;;25.13;;
23266;SDS011;11802;53.160;8.214;2024-01-11T04:16:56;60.33;;;25.70;;
23266;SDS011;11802;53.160;8.214;2024-01-11T04:19:22;69.77;;;26.07;;
23266;SDS011;11802;53.160;8.214;2024-01-11T04:21:48;64.30;;;25.33;;
23266;SDS011;11802;53.160;8.214;2024-01-11T04:24:13;69.70;;;27.83;;
23266;SDS011;11802;53.160;8.214;2024-01-11T04:26:39;65.60;;;27.20;;
23266;SDS011;11802;53.160;8.214;2024-01-11T04:29:04;62.33;;;26.43;;
23266;SDS011;11802;53.160;8.214;2024-01-11T04:31:30;69.30;;;26.20;;
23266;SDS011;11802;53.160;8.214;2024-01-11T04:33:56;66.47;;;27.43;;
23266;SDS011;11802;53.160;8.214;2024-01-11T04:36:21;64.50;;;27.47;;
23266;SDS011;11802;53.160;8.214;2024-01-11T04:38:47;72.30;;;28.37;;
23266;SDS011;11802;53.160;8.214;2024-01-11T04:41:13;72.03;;;26.83;;
23266;SDS011;11802;53.160;8.214;2024-01-11T04:43:39;68.43;;;26.50;;
23266;SDS011;11802;53.160;8.214;2024-01-11T04:46:19;72.80;;;26.70;;
23266;SDS011;11802;53.160;8.214;2024-01-11T04:48:46;69.57;;;26.60;;
23266;SDS011;11802;53.160;8.214;2024-01-11T04:51:16;72.03;;;28.80;;
23266;SDS011;11802;53.160;8.214;2024-01-11T04:53:43;71.10;;;26.63;;
23266;SDS011;11802;53.160;8.214;2024-01-11T04:56:11;73.00;;;27.33;;
23266;SDS011;11802;53.160;8.214;2024-01-11T04:58:41;74.07;;;28.33;;
23266;SDS011;11802;53.160;8.214;2024-01-11T05:01:14;71.00;;;27.47;;
23266;SDS011;11802;53.160;8.214;2024-01-11T05:03:41;70.33;;;27.77;;
23266;SDS011;11802;53.160;8.214;2024-01-11T05:06:17;68.23;;;26.57;;
23266;SDS011;11802;53.160;8.214;2024-01-11T05:08:44;71.97;;;26.53;;
23266;SDS011;11802;53.160;8.214;2024-01-11T05:11:17;59.20;;;22.67;;
23266;SDS011;11802;53.160;8.214;2024-01-11T05:13:44;74.67;;;28.47;;
23266;SDS011;11802;53.160;8.214;2024-01-11T05:18:45;75.73;;;28.97;;
23266;SDS011;11802;53.160;8.214;2024-01-11T05:21:11;71.40;;;27.83;;
23266;SDS011;11802;53.160;8.214;2024-01-11T05:23:37;78.70;;;29.97;;
23266;SDS011;11802;53.160;8.214;2024-01-11T05:26:02;71.23;;;26.27;;
23266;SDS011;11802;53.160;8.214;2024-01-11T05:28:28;71.60;;;29.43;;
23266;SDS011;11802;53.160;8.214;2024-01-11T05:30:54;71.53;;;27.03;;
23266;SDS011;11802;53.160;8.214;2024-01-11T05:33:20;61.23;;;25.87;;
23266;SDS011;11802;53.160;8.214;2024-01-11T05:35:45;78.80;;;29.30;;
23266;SDS011;11802;53.160;8.214;2024-01-11T05:38:11;76.30;;;28.93;;
23266;SDS011;11802;53.160;8.214;2024-01-11T05:40:36;72.43;;;27.30;;
23266;SDS011;11802;53.160;8.214;2024-01-11T05:43:02;71.93;;;26.93;;
23266;SDS011;11802;53.160;8.214;2024-01-11T05:45:28;68.27;;;24.83;;
23266;SDS011;11802;53.160;8.214;2024-01-11T05:47:53;80.73;;;28.90;;
23266;SDS011;11802;53.160;8.214;2024-01-11T05:50:19;74.53;;;27.80;;
23266;SDS011;11802;53.160;8.214;2024-01-11T05:52:44;73.77;;;27.27;;
23266;SDS011;11802;53.160;8.214;2024-01-11T05:55:10;78.47;;;28.33;;
23266;SDS011;11802;53.160;8.214;2024-01-11T05:57:35;74.30;;;26.40;;
23266;SDS011;11802;53.160;8.214;2024-01-11T06:00:02;62.30;;;23.03;;
23266;SDS011;11802;53.160;8.214;2024-01-11T06:02:28;77.73;;;27.67;;
23266;SDS011;11802;53.160;8.214;2024-01-11T06:04:56;83.37;;;30.23;;
23266;SDS011;11802;53.160;8.214;2024-01-11T06:07:22;80.20;;;29.50;;
23266;SDS011;11802;53.160;8.214;2024-01-11T06:09:47;76.97;;;28.13;;
23266;SDS011;11802;53.160;8.214;2024-01-11T06:12:13;78.27;;;29.53;;
23266;SDS011;11802;53.160;8.214;2024-01-11T06:14:39;69.83;;;26.40;;
23266;SDS011;11802;53.160;8.214;2024-01-11T06:17:04;69.73;;;26.47;;
23266;SDS011;11802;53.160;8.214;2024-01-11T06:19:30;86.23;;;30.47;;
23266;SDS011;11802;53.160;8.214;2024-01-11T06:21:55;72.93;;;27.37;;
23266;SDS011;11802;53.160;8.214;2024-01-11T06:24:21;66.60;;;25.87;;
23266;SDS011;11802;53.160;8.214;2024-01-11T06:26:46;71.93;;;27.17;;
23266;SDS011;11802;53.160;8.214;2024-01-11T06:29:12;71.27;;;27.07;;
23266;SDS011;11802;53.160;8.214;2024-01-11T06:31:38;73.63;;;27.40;;
23266;SDS011;11802;53.160;8.214;2024-01-11T06:34:03;76.63;;;28.47;;
23266;SDS011;11802;53.160;8.214;2024-01-11T06:36:29;71.50;;;27.63;;
23266;SDS011;11802;53.160;8.214;2024-01-11T06:38:55;76.07;;;28.47;;
23266;SDS011;11802;53.160;8.214;2024-01-11T06:41:21;73.40;;;27.97;;
23266;SDS011;11802;53.160;8.214;2024-01-11T06:43:46;62.10;;;23.13;;
23266;SDS011;11802;53.160;8.214;2024-01-11T06:46:12;70.90;;;26.33;;
23266;SDS011;11802;53.160;8.214;2024-01-11T06:48:37;72.80;;;28.73;;
23266;SDS011;11802;53.160;8.214;2024-01-11T06:51:03;61.27;;;24.67;;
23266;SDS011;11802;53.160;8.214;2024-01-11T06:53:29;55.10;;;24.07;;
23266;SDS011;11802;53.160;8.214;2024-01-11T06:55:54;61.37;;;23.50;;
23266;SDS011;11802;53.160;8.214;2024-01-11T06:58:20;84.33;;;31.23;;
23266;SDS011;11802;53.160;8.214;2024-01-11T07:00:47;56.93;;;22.27;;
23266;SDS011;11802;53.160;8.214;2024-01-11T07:03:14;69.73;;;25.63;;
23266;SDS011;11802;53.160;8.214;2024-01-11T07:05:40;76.00;;;28.63;;
23266;SDS011;11802;53.160;8.214;2024-01-11T07:08:05;75.73;;;27.90;;
23266;SDS011;11802;53.160;8.214;2024-01-11T07:10:31;79.13;;;28.13;;
23266;SDS011;11802;53.160;8.214;2024-01-11T07:12:57;85.70;;;32.93;;
23266;SDS011;11802;53.160;8.214;2024-01-11T07:15:22;88.47;;;30.97;;
23266;SDS011;11802;53.160;8.214;2024-01-11T07:17:48;88.50;;;32.50;;
23266;SDS011;11802;53.160;8.214;2024-01-11T07:20:14;74.77;;;31.27;;
23266;SDS011;11802;53.160;8.214;2024-01-11T07:22:41;92.03;;;34.13;;
23266;SDS011;11802;53.160;8.214;2024-01-11T07:25:07;86.10;;;31.53;;
23266;SDS011;11802;53.160;8.214;2024-01-11T07:27:33;102.50;;;37.03;;
23266;SDS011;11802;53.160;8.214;2024-01-11T07:30:00;95.37;;;35.23;;
23266;SDS011;11802;53.160;8.214;2024-01-11T07:32:27;86.07;;;31.30;;
23266;SDS011;11802;53.160;8.214;2024-01-11T07:34:52;93.03;;;34.67;;
23266;SDS011;11802;53.160;8.214;2024-01-11T07:37:18;92.77;;;32.23;;
23266;SDS011;11802;53.160;8.214;2024-01-11T07:39:44;75.20;;;26.60;;
23266;SDS011;11802;53.160;8.214;2024-01-11T07:42:09;71.53;;;27.93;;
23266;SDS011;11802;53.160;8.214;2024-01-11T07:44:35;68.77;;;26.00;;
23266;SDS011;11802;53.160;8.214;2024-01-11T07:47:00;86.60;;;30.90;;
23266;SDS011;11802;53.160;8.214;2024-01-11T07:49:26;85.30;;;30.87;;
23266;SDS011;11802;53.160;8.214;2024-01-11T07:51:52;89.30;;;32.20;;
23266;SDS011;11802;53.160;8.214;2024-01-11T07:54:17;86.27;;;31.37;;
23266;SDS011;11802;53.160;8.214;2024-01-11T07:56:43;87.53;;;32.73;;
23266;SDS011;11802;53.160;8.214;2024-01-11T07:59:08;66.67;;;26.53;;
23266;SDS011;11802;53.160;8.214;2024-01-11T08:01:38;78.17;;;29.27;;
23266;SDS011;11802;53.160;8.214;2024-01-11T08:04:04;69.27;;;25.53;;
23266;SDS011;11802;53.160;8.214;2024-01-11T08:06:29;75.23;;;27.67;;
23266;SDS011;11802;53.160;8.214;2024-01-11T08:08:55;71.63;;;26.93;;
23266;SDS011;11802;53.160;8.214;2024-01-11T08:11:20;80.33;;;30.33;;
23266;SDS011;11802;53.160;8.214;2024-01-11T08:13:46;81.10;;;29.43;;
23266;SDS011;11802;53.160;8.214;2024-01-11T08:16:18;62.63;;;24.53;;
23266;SDS011;11802;53.160;8.214;2024-01-11T08:18:43;62.47;;;25.40;;
23266;SDS011;11802;53.160;8.214;2024-01-11T08:21:10;69.23;;;27.00;;
23266;SDS011;11802;53.160;8.214;2024-01-11T08:23:42;62.97;;;26.30;;
23266;SDS011;11802;53.160;8.214;2024-01-11T08:26:11;73.57;;;27.73;;
23266;SDS011;11802;53.160;8.214;2024-01-11T08:28:40;59.50;;;22.73;;
23266;SDS011;11802;53.160;8.214;2024-01-11T08:31:06;61.17;;;24.27;;
23266;SDS011;11802;53.160;8.214;2024-01-11T08:33:32;81.97;;;34.37;;
23266;SDS011;11802;53.160;8.214;2024-01-11T08:35:58;60.37;;;22.37;;
23266;SDS011;11802;53.160;8.214;2024-01-11T08:38:24;69.03;;;27.53;;
23266;SDS011;11802;53.160;8.214;2024-01-11T08:40:49;69.13;;;25.43;;
23266;SDS011;11802;53.160;8.214;2024-01-11T08:43:15;75.50;;;29.83;;
23266;SDS011;11802;53.160;8.214;2024-01-11T08:45:41;60.60;;;23.80;;
23266;SDS011;11802;53.160;8.214;2024-01-11T08:48:08;60.37;;;24.10;;
23266;SDS011;11802;53.160;8.214;2024-01-11T08:50:34;54.10;;;23.80;;
23266;SDS011;11802;53.160;8.214;2024-01-11T08:53:00;63.20;;;26.20;;
23266;SDS011;11802;53.160;8.214;2024-01-11T08:55:26;60.70;;;24.17;;
23266;SDS011;11802;53.160;8.214;2024-01-11T08:57:52;51.97;;;21.33;;
23266;SDS011;11802;53.160;8.214;2024-01-11T09:00:18;60.37;;;24.70;;
23266;SDS011;11802;53.160;8.214;2024-01-11T09:02:44;65.37;;;27.90;;
23266;SDS011;11802;53.160;8.214;2024-01-11T09:05:10;64.97;;;26.77;;
23266;SDS011;11802;53.160;8.214;2024-01-11T09:07:36;66.13;;;26.60;;
23266;SDS011;11802;53.160;8.214;2024-01-11T09:10:02;62.20;;;24.03;;
23266;SDS011;11802;53.160;8.214;2024-01-11T09:12:28;59.50;;;24.97;;
23266;SDS011;11802;53.160;8.214;2024-01-11T09:14:54;64.83;;;23.77;;
23266;SDS011;11802;53.160;8.214;2024-01-11T09:17:19;60.40;;;25.50;;
23266;SDS011;11802;53.160;8.214;2024-01-11T09:19:46;58.77;;;25.50;;
23266;SDS011;11802;53.160;8.214;2024-01-11T09:22:12;70.47;;;27.10;;
23266;SDS011;11802;53.160;8.214;2024-01-11T09:24:37;69.20;;;28.77;;
23266;SDS011;11802;53.160;8.214;2024-01-11T09:27:03;63.17;;;26.40;;
23266;SDS011;11802;53.160;8.214;2024-01-11T09:29:31;62.80;;;25.77;;
23266;SDS011;11802;53.160;8.214;2024-01-11T09:31:58;54.00;;;23.17;;
23266;SDS011;11802;53.160;8.214;2024-01-11T09:34:24;67.07;;;26.90;;
23266;SDS011;11802;53.160;8.214;2024-01-11T09:36:50;57.13;;;23.93;;
23266;SDS011;11802;53.160;8.214;2024-01-11T09:39:15;46.47;;;20.13;;
23266;SDS011;11802;53.160;8.214;2024-01-11T09:41:42;61.37;;;25.63;;
23266;SDS011;11802;53.160;8.214;2024-01-11T09:44:14;56.67;;;24.93;;
23266;SDS011;11802;53.160;8.214;2024-01-11T09:46:40;48.50;;;21.67;;
23266;SDS011;11802;53.160;8.214;2024-01-11T09:49:06;57.87;;;23.23;;
23266;SDS011;11802;53.160;8.214;2024-01-11T09:51:34;50.93;;;23.00;;
23266;SDS011;11802;53.160;8.214;2024-01-11T09:54:02;50.00;;;21.00;;
23266;SDS011;11802;53.160;8.214;2024-01-11T09:56:28;49.60;;;20.80;;
23266;SDS011;11802;53.160;8.214;2024-01-11T09:58:54;60.90;;;22.73;;
23266;SDS011;11802;53.160;8.214;2024-01-11T10:01:19;62.00;;;25.67;;
23266;SDS011;11802;53.160;8.214;2024-01-11T10:03:45;52.67;;;22.70;;
23266;SDS011;11802;53.160;8.214;2024-01-11T10:06:11;55.20;;;24.10;;
23266;SDS011;11802;53.160;8.214;2024-01-11T10:08:38;48.63;;;20.90;;
23266;SDS011;11802;53.160;8.214;2024-01-11T10:11:04;56.90;;;23.87;;
23266;SDS011;11802;53.160;8.214;2024-01-11T10:13:30;53.57;;;22.73;;
23266;SDS011;11802;53.160;8.214;2024-01-11T10:18:38;55.70;;;24.67;;
23266;SDS011;11802;53.160;8.214;2024-01-11T10:21:04;55.80;;;23.97;;
23266;SDS011;11802;53.160;8.214;2024-01-11T10:23:33;55.73;;;26.13;;
23266;SDS011;11802;53.160;8.214;2024-01-11T10:25:59;61.43;;;28.67;;
23266;SDS011;11802;53.160;8.214;2024-01-11T10:28:25;48.03;;;21.00;;
23266;SDS011;11802;53.160;8.214;2024-01-11T10:30:51;45.10;;;21.30;;
23266;SDS011;11802;53.160;8.214;2024-01-11T10:33:20;65.10;;;27.47;;
23266;SDS011;11802;53.160;8.214;2024-01-11T10:35:47;60.37;;;26.23;;
23266;SDS011;11802;53.160;8.214;2024-01-11T10:38:14;59.30;;;27.43;;
23266;SDS011;11802;53.160;8.214;2024-01-11T10:40:40;67.23;;;29.97;;
23266;SDS011;11802;53.160;8.214;2024-01-11T10:43:08;66.17;;;27.27;;
23266;SDS011;11802;53.160;8.214;2024-01-11T10:45:36;59.93;;;27.10;;
23266;SDS011;11802;53.160;8.214;2024-01-11T10:48:06;51.13;;;22.67;;
23266;SDS011;11802;53.160;8.214;2024-01-11T10:50:37;51.63;;;24.03;;
23266;SDS011;11802;53.160;8.214;2024-01-11T10:53:25;49.77;;;23.87;;
23266;SDS011;11802;53.160;8.214;2024-01-11T10:56:03;64.20;;;27.97;;
23266;SDS011;11802;53.160;8.214;2024-01-11T10:58:31;50.93;;;23.37;;
23266;SDS011;11802;53.160;8.214;2024-01-11T11:00:59;55.63;;;24.53;;
23266;SDS011;11802;53.160;8.214;2024-01-11T11:03:26;59.33;;;25.70;;
23266;SDS011;11802;53.160;8.214;2024-01-11T11:05:53;82.53;;;30.27;;
23266;SDS011;11802;53.160;8.214;2024-01-11T11:08:22;75.97;;;27.90;;
23266;SDS011;11802;53.160;8.214;2024-01-11T11:10:50;75.57;;;30.47;;
23266;SDS011;11802;53.160;8.214;2024-01-11T11:13:20;59.33;;;24.07;;
23266;SDS011;11802;53.160;8.214;2024-01-11T11:15:46;122.97;;;39.97;;
23266;SDS011;11802;53.160;8.214;2024-01-11T11:18:14;78.00;;;29.03;;
23266;SDS011;11802;53.160;8.214;2024-01-11T11:20:40;52.77;;;26.37;;
23266;SDS011;11802;53.160;8.214;2024-01-11T11:23:07;55.50;;;25.73;;
23266;SDS011;11802;53.160;8.214;2024-01-11T11:25:38;54.53;;;24.87;;
23266;SDS011;11802;53.160;8.214;2024-01-11T11:28:05;39.53;;;19.23;;
23266;SDS011;11802;53.160;8.214;2024-01-11T11:30:32;42.80;;;19.87;;
23266;SDS011;11802;53.160;8.214;2024-01-11T11:33:11;49.63;;;22.20;;
23266;SDS011;11802;53.160;8.214;2024-01-11T11:35:45;45.97;;;20.63;;
23266;SDS011;11802;53.160;8.214;2024-01-11T11:38:16;45.37;;;20.03;;
23266;SDS011;11802;53.160;8.214;2024-01-11T11:40:43;49.03;;;23.03;;
23266;SDS011;11802;53.160;8.214;2024-01-11T11:43:12;44.63;;;20.80;;
23266;SDS011;11802;53.160;8.214;2024-01-11T11:45:39;54.40;;;24.07;;
23266;SDS011;11802;53.160;8.214;2024-01-11T11:53:34;42.97;;;19.70;;
23266;SDS011;11802;53.160;8.214;2024-01-11T11:56:01;40.00;;;18.83;;
23266;SDS011;11802;53.160;8.214;2024-01-11T11:58:28;43.80;;;20.73;;
23266;SDS011;11802;53.160;8.214;2024-01-11T12:00:57;39.47;;;19.53;;
23266;SDS011;11802;53.160;8.214;2024-01-11T12:03:25;36.43;;;18.77;;
23266;SDS011;11802;53.160;8.214;2024-01-11T12:08:46;43.57;;;20.70;;
23266;SDS011;11802;53.160;8.214;2024-01-11T12:11:51;37.93;;;17.87;;
23266;SDS011;11802;53.160;8.214;2024-01-11T12:14:17;48.30;;;22.00;;
23266;SDS011;11802;53.160;8.214;2024-01-11T12:16:43;39.03;;;19.57;;
23266;SDS011;11802;53.160;8.214;2024-01-11T12:19:08;37.87;;;19.00;;
23266;SDS011;11802;53.160;8.214;2024-01-11T12:21:34;39.20;;;20.57;;
23266;SDS011;11802;53.160;8.214;2024-01-11T12:24:00;38.03;;;19.67;;
23266;SDS011;11802;53.160;8.214;2024-01-11T12:26:26;38.10;;;19.60;;
23266;SDS011;11802;53.160;8.214;2024-01-11T12:28:51;36.37;;;17.83;;
23266;SDS011;11802;53.160;8.214;2024-01-11T12:31:17;34.27;;;17.03;;
23266;SDS011;11802;53.160;8.214;2024-01-11T12:33:44;32.10;;;16.20;;
23266;SDS011;11802;53.160;8.214;2024-01-11T12:36:10;33.30;;;17.40;;
23266;SDS011;11802;53.160;8.214;2024-01-11T12:38:36;38.33;;;19.10;;
23266;SDS011;11802;53.160;8.214;2024-01-11T12:41:02;37.87;;;19.40;;
23266;SDS011;11802;53.160;8.214;2024-01-11T12:43:28;29.80;;;15.70;;
23266;SDS011;11802;53.160;8.214;2024-01-11T12:45:54;36.90;;;18.17;;
23266;SDS011;11802;53.160;8.214;2024-01-11T12:48:20;35.23;;;17.23;;
23266;SDS011;11802;53.160;8.214;2024-01-11T12:50:45;30.30;;;15.27;;
23266;SDS011;11802;53.160;8.214;2024-01-11T12:53:12;30.33;;;14.40;;
23266;SDS011;11802;53.160;8.214;2024-01-11T12:55:48;30.37;;;15.70;;
23266;SDS011;11802;53.160;8.214;2024-01-11T12:58:18;38.77;;;19.20;;
23266;SDS011;11802;53.160;8.214;2024-01-11T13:00:50;47.77;;;23.23;;
23266;SDS011;11802;53.160;8.214;2024-01-11T13:03:17;33.13;;;16.90;;
23266;SDS011;11802;53.160;8.214;2024-01-11T13:05:44;39.23;;;18.03;;
23266;SDS011;11802;53.160;8.214;2024-01-11T13:08:10;33.50;;;17.27;;
23266;SDS011;11802;53.160;8.214;2024-01-11T13:10:36;60.63;;;25.37;;
23266;SDS011;11802;53.160;8.214;2024-01-11T13:13:03;44.47;;;22.80;;
23266;SDS011;11802;53.160;8.214;2024-01-11T13:15:30;38.40;;;19.10;;
23266;SDS011;11802;53.160;8.214;2024-01-11T13:17:59;38.90;;;18.27;;
23266;SDS011;11802;53.160;8.214;2024-01-11T13:20:25;29.77;;;15.67;;
23266;SDS011;11802;53.160;8.214;2024-01-11T13:23:10;33.10;;;17.10;;
23266;SDS011;11802;53.160;8.214;2024-01-11T13:25:36;33.20;;;16.30;;
23266;SDS011;11802;53.160;8.214;2024-01-11T13:28:02;35.47;;;17.97;;
23266;SDS011;11802;53.160;8.214;2024-01-11T13:30:27;30.33;;;16.63;;
23266;SDS011;11802;53.160;8.214;2024-01-11T13:32:53;28.70;;;16.30;;
23266;SDS011;11802;53.160;8.214;2024-01-11T13:35:18;27.23;;;14.17;;
23266;SDS011;11802;53.160;8.214;2024-01-11T13:37:45;29.57;;;15.50;;
23266;SDS011;11802;53.160;8.214;2024-01-11T13:40:10;32.80;;;18.43;;
23266;SDS011;11802;53.160;8.214;2024-01-11T13:42:38;32.17;;;18.57;;
23266;SDS011;11802;53.160;8.214;2024-01-11T13:45:04;30.97;;;16.67;;
23266;SDS011;11802;53.160;8.214;2024-01-11T13:47:33;29.27;;;16.03;;
23266;SDS011;11802;53.160;8.214;2024-01-11T13:49:59;28.90;;;16.20;;
23266;SDS011;11802;53.160;8.214;2024-01-11T13:52:25;24.37;;;13.17;;
23266;SDS011;11802;53.160;8.214;2024-01-11T13:54:50;33.90;;;17.73;;
23266;SDS011;11802;53.160;8.214;2024-01-11T13:57:16;28.33;;;15.13;;
23266;SDS011;11802;53.160;8.214;2024-01-11T13:59:42;31.60;;;15.83;;
23266;SDS011;11802;53.160;8.214;2024-01-11T14:02:07;31.13;;;16.67;;
23266;SDS011;11802;53.160;8.214;2024-01-11T14:04:33;31.57;;;15.63;;
23266;SDS011;11802;53.160;8.214;2024-01-11T14:06:59;26.73;;;14.97;;
23266;SDS011;11802;53.160;8.214;2024-01-11T14:09:25;24.93;;;14.40;;
23266;SDS011;11802;53.160;8.214;2024-01-11T14:11:50;28.93;;;15.33;;
23266;SDS011;11802;53.160;8.214;2024-01-11T14:14:18;30.30;;;15.27;;
23266;SDS011;11802;53.160;8.214;2024-01-11T14:16:45;26.30;;;15.40;;
23266;SDS011;11802;53.160;8.214;2024-01-11T14:19:11;34.43;;;18.20;;
23266;SDS011;11802;53.160;8.214;2024-01-11T14:21:37;28.97;;;15.53;;
23266;SDS011;11802;53.160;8.214;2024-01-11T14:24:05;28.40;;;16.03;;
23266;SDS011;11802;53.160;8.214;2024-01-11T14:26:32;31.27;;;16.27;;
23266;SDS011;11802;53.160;8.214;2024-01-11T14:29:00;29.37;;;15.20;;
23266;SDS011;11802;53.160;8.214;2024-01-11T14:31:26;31.00;;;15.83;;
23266;SDS011;11802;53.160;8.214;2024-01-11T14:33:52;29.67;;;15.97;;
23266;SDS011;11802;53.160;8.214;2024-01-11T14:36:17;32.10;;;16.70;;